ENQC

Troll C Platform Heliport

Norway
METAR ENQC 220620Z AUTO 13021KT 9999NDV FEW007/// BKN053/// 07/05 Q1012 W///S4
Observed Flight Rules
Apr-22 @ 06:20 UTC (39 minutes ago)
Wind Clouds
130° at 21 knots
  • Few at 700' AGL
  • Broken at 5,300' AGL
Temperatures Readings
Current 7°C / 45°F
Dewpoint 5°C / 41°F
Humidity 87%
Altimeter 29.88" Hg
Pressure 1012 hPa
Elevation 20
METAR ENQC 220620Z AUTO 13021KT 9999NDV FEW007/// BKN053/// 07/05 Q1012 W///S4
Observed Flight Rules
Apr-22 @ 06:20 UTC
(39 minutes ago)
Wind
130° at 21 knots
Clouds
  • Few at 700' AGL
  • Broken at 5,300' AGL
Temperature Dewpoint
7°C / 45°F 5°C / 41°F
Humidity Altimeter Pressure
87% 29.88" Hg 1012 hPa